sensor_id;sensor_type;location;lat;lon;timestamp;P1;durP1;ratioP1;P2;durP2;ratioP2
50733;SDS011;36701;51.798;19.474;2023-04-25T02:01:59;8.93;;;5.25;;
50733;SDS011;36701;51.798;19.474;2023-04-25T02:04:31;12.43;;;5.87;;
50733;SDS011;36701;51.798;19.474;2023-04-25T02:06:58;7.60;;;5.75;;
50733;SDS011;36701;51.798;19.474;2023-04-25T02:09:29;9.07;;;5.45;;
50733;SDS011;36701;51.798;19.474;2023-04-25T02:11:55;8.02;;;4.95;;
50733;SDS011;36701;51.798;19.474;2023-04-25T02:14:23;8.77;;;5.72;;
50733;SDS011;36701;51.798;19.474;2023-04-25T02:16:49;8.43;;;5.37;;
50733;SDS011;36701;51.798;19.474;2023-04-25T02:19:17;8.57;;;4.93;;
50733;SDS011;36701;51.798;19.474;2023-04-25T02:21:43;6.35;;;4.25;;
50733;SDS011;36701;51.798;19.474;2023-04-25T02:24:10;8.63;;;5.07;;
50733;SDS011;36701;51.798;19.474;2023-04-25T02:26:37;8.65;;;5.90;;
50733;SDS011;36701;51.798;19.474;2023-04-25T02:29:08;7.15;;;4.95;;
50733;SDS011;36701;51.798;19.474;2023-04-25T02:31:34;6.97;;;5.28;;
50733;SDS011;36701;51.798;19.474;2023-04-25T02:34:01;9.00;;;4.60;;
50733;SDS011;36701;51.798;19.474;2023-04-25T02:36:27;11.93;;;5.35;;
50733;SDS011;36701;51.798;19.474;2023-04-25T02:39:00;9.80;;;5.03;;
50733;SDS011;36701;51.798;19.474;2023-04-25T02:41:27;7.80;;;4.85;;
50733;SDS011;36701;51.798;19.474;2023-04-25T02:43:54;6.80;;;5.15;;
50733;SDS011;36701;51.798;19.474;2023-04-25T02:46:20;7.72;;;4.57;;
50733;SDS011;36701;51.798;19.474;2023-04-25T02:48:47;4.80;;;3.95;;
50733;SDS011;36701;51.798;19.474;2023-04-25T02:51:13;8.00;;;4.18;;
50733;SDS011;36701;51.798;19.474;2023-04-25T02:53:40;6.10;;;3.92;;
50733;SDS011;36701;51.798;19.474;2023-04-25T02:56:06;6.62;;;4.32;;
50733;SDS011;36701;51.798;19.474;2023-04-25T02:58:32;9.35;;;4.12;;
50733;SDS011;36701;51.798;19.474;2023-04-25T03:00:58;3.53;;;3.03;;
50733;SDS011;36701;51.798;19.474;2023-04-25T03:03:24;4.28;;;3.87;;
50733;SDS011;36701;51.798;19.474;2023-04-25T03:05:51;5.75;;;2.85;;
50733;SDS011;36701;51.798;19.474;2023-04-25T03:08:18;3.87;;;3.37;;
50733;SDS011;36701;51.798;19.474;2023-04-25T03:10:45;4.20;;;2.95;;
50733;SDS011;36701;51.798;19.474;2023-04-25T03:13:12;4.43;;;2.67;;
50733;SDS011;36701;51.798;19.474;2023-04-25T03:15:40;3.22;;;2.92;;
50733;SDS011;36701;51.798;19.474;2023-04-25T03:18:06;3.28;;;2.97;;
50733;SDS011;36701;51.798;19.474;2023-04-25T03:20:32;3.85;;;2.87;;
50733;SDS011;36701;51.798;19.474;2023-04-25T03:22:58;3.67;;;3.37;;
50733;SDS011;36701;51.798;19.474;2023-04-25T03:25:25;4.18;;;3.17;;
50733;SDS011;36701;51.798;19.474;2023-04-25T03:27:51;2.90;;;2.70;;
50733;SDS011;36701;51.798;19.474;2023-04-25T03:30:17;17.52;;;3.30;;
50733;SDS011;36701;51.798;19.474;2023-04-25T03:32:44;3.60;;;3.20;;
50733;SDS011;36701;51.798;19.474;2023-04-25T03:35:14;3.85;;;2.87;;
50733;SDS011;36701;51.798;19.474;2023-04-25T03:37:40;4.50;;;3.00;;
50733;SDS011;36701;51.798;19.474;2023-04-25T03:40:06;4.78;;;2.85;;
50733;SDS011;36701;51.798;19.474;2023-04-25T03:42:35;2.87;;;2.67;;
50733;SDS011;36701;51.798;19.474;2023-04-25T03:45:01;2.92;;;2.75;;
50733;SDS011;36701;51.798;19.474;2023-04-25T03:47:29;6.87;;;3.45;;
50733;SDS011;36701;51.798;19.474;2023-04-25T03:49:55;6.97;;;3.12;;
50733;SDS011;36701;51.798;19.474;2023-04-25T03:52:21;28.17;;;3.42;;
50733;SDS011;36701;51.798;19.474;2023-04-25T03:54:48;4.93;;;3.17;;
50733;SDS011;36701;51.798;19.474;2023-04-25T03:57:14;5.25;;;3.92;;
50733;SDS011;36701;51.798;19.474;2023-04-25T03:59:41;4.70;;;3.30;;
50733;SDS011;36701;51.798;19.474;2023-04-25T04:02:09;7.45;;;2.60;;
50733;SDS011;36701;51.798;19.474;2023-04-25T04:04:35;3.03;;;2.83;;
50733;SDS011;36701;51.798;19.474;2023-04-25T04:07:02;6.82;;;2.70;;
50733;SDS011;36701;51.798;19.474;2023-04-25T04:09:28;2.80;;;2.60;;
50733;SDS011;36701;51.798;19.474;2023-04-25T04:11:56;4.90;;;2.58;;
50733;SDS011;36701;51.798;19.474;2023-04-25T04:14:22;3.20;;;2.60;;
50733;SDS011;36701;51.798;19.474;2023-04-25T04:16:50;3.62;;;2.30;;
50733;SDS011;36701;51.798;19.474;2023-04-25T04:19:16;2.35;;;2.15;;
50733;SDS011;36701;51.798;19.474;2023-04-25T04:21:43;6.62;;;2.35;;
50733;SDS011;36701;51.798;19.474;2023-04-25T04:24:09;2.70;;;1.80;;
50733;SDS011;36701;51.798;19.474;2023-04-25T04:26:37;2.53;;;2.33;;
50733;SDS011;36701;51.798;19.474;2023-04-25T04:29:04;2.90;;;2.20;;
50733;SDS011;36701;51.798;19.474;2023-04-25T04:31:31;3.12;;;2.53;;
50733;SDS011;36701;51.798;19.474;2023-04-25T04:33:59;2.22;;;2.05;;
50733;SDS011;36701;51.798;19.474;2023-04-25T04:36:25;4.28;;;1.87;;
50733;SDS011;36701;51.798;19.474;2023-04-25T04:38:53;2.10;;;1.92;;
50733;SDS011;36701;51.798;19.474;2023-04-25T04:41:20;2.83;;;1.62;;
50733;SDS011;36701;51.798;19.474;2023-04-25T04:43:46;1.95;;;1.75;;
50733;SDS011;36701;51.798;19.474;2023-04-25T04:46:14;1.83;;;1.73;;
50733;SDS011;36701;51.798;19.474;2023-04-25T04:48:40;4.53;;;2.03;;
50733;SDS011;36701;51.798;19.474;2023-04-25T04:51:08;1.70;;;1.60;;
50733;SDS011;36701;51.798;19.474;2023-04-25T04:53:34;2.10;;;2.00;;
50733;SDS011;36701;51.798;19.474;2023-04-25T04:56:00;4.95;;;2.92;;
50733;SDS011;36701;51.798;19.474;2023-04-25T04:58:27;10.48;;;1.10;;
50733;SDS011;36701;51.798;19.474;2023-04-25T05:00:57;1.52;;;1.42;;
50733;SDS011;36701;51.798;19.474;2023-04-25T05:03:25;1.60;;;1.50;;
50733;SDS011;36701;51.798;19.474;2023-04-25T05:05:53;1.90;;;1.80;;
50733;SDS011;36701;51.798;19.474;2023-04-25T05:08:23;4.68;;;3.33;;
50733;SDS011;36701;51.798;19.474;2023-04-25T05:10:50;1.65;;;1.50;;
50733;SDS011;36701;51.798;19.474;2023-04-25T05:13:16;3.20;;;1.67;;
50733;SDS011;36701;51.798;19.474;2023-04-25T05:15:43;1.83;;;1.70;;
50733;SDS011;36701;51.798;19.474;2023-04-25T05:18:10;3.70;;;1.58;;
50733;SDS011;36701;51.798;19.474;2023-04-25T05:20:38;1.45;;;1.45;;
50733;SDS011;36701;51.798;19.474;2023-04-25T05:23:04;1.85;;;1.67;;
50733;SDS011;36701;51.798;19.474;2023-04-25T05:25:30;4.30;;;1.70;;
50733;SDS011;36701;51.798;19.474;2023-04-25T05:27:56;2.00;;;1.90;;
50733;SDS011;36701;51.798;19.474;2023-04-25T05:30:24;1.92;;;1.30;;
50733;SDS011;36701;51.798;19.474;2023-04-25T05:32:51;2.15;;;1.55;;
50733;SDS011;36701;51.798;19.474;2023-04-25T05:35:18;6.15;;;1.50;;
50733;SDS011;36701;51.798;19.474;2023-04-25T05:37:45;1.70;;;1.60;;
50733;SDS011;36701;51.798;19.474;2023-04-25T05:40:12;1.40;;;1.30;;
50733;SDS011;36701;51.798;19.474;2023-04-25T05:42:38;2.00;;;1.77;;
50733;SDS011;36701;51.798;19.474;2023-04-25T05:47:39;1.67;;;1.55;;
50733;SDS011;36701;51.798;19.474;2023-04-25T05:50:05;2.83;;;2.22;;
50733;SDS011;36701;51.798;19.474;2023-04-25T05:52:32;1.83;;;1.70;;
50733;SDS011;36701;51.798;19.474;2023-04-25T05:55:00;1.77;;;1.67;;
50733;SDS011;36701;51.798;19.474;2023-04-25T05:57:26;2.40;;;1.40;;
50733;SDS011;36701;51.798;19.474;2023-04-25T05:59:53;2.20;;;1.62;;
50733;SDS011;36701;51.798;19.474;2023-04-25T06:02:20;1.27;;;1.25;;
50733;SDS011;36701;51.798;19.474;2023-04-25T06:04:49;1.80;;;1.65;;
50733;SDS011;36701;51.798;19.474;2023-04-25T06:07:15;5.90;;;1.67;;
50733;SDS011;36701;51.798;19.474;2023-04-25T06:09:41;2.85;;;1.58;;
50733;SDS011;36701;51.798;19.474;2023-04-25T06:12:08;6.97;;;1.40;;
50733;SDS011;36701;51.798;19.474;2023-04-25T06:14:35;1.45;;;1.35;;
50733;SDS011;36701;51.798;19.474;2023-04-25T06:17:01;3.80;;;1.95;;
50733;SDS011;36701;51.798;19.474;2023-04-25T06:19:32;2.70;;;1.40;;
50733;SDS011;36701;51.798;19.474;2023-04-25T06:21:58;1.98;;;1.70;;
50733;SDS011;36701;51.798;19.474;2023-04-25T06:24:24;2.35;;;1.50;;
50733;SDS011;36701;51.798;19.474;2023-04-25T06:26:51;2.42;;;1.52;;
50733;SDS011;36701;51.798;19.474;2023-04-25T06:29:17;1.33;;;1.17;;
50733;SDS011;36701;51.798;19.474;2023-04-25T06:31:43;1.70;;;1.60;;
50733;SDS011;36701;51.798;19.474;2023-04-25T06:34:10;3.67;;;1.70;;
50733;SDS011;36701;51.798;19.474;2023-04-25T06:36:37;1.37;;;1.27;;
50733;SDS011;36701;51.798;19.474;2023-04-25T06:39:04;3.30;;;1.70;;
50733;SDS011;36701;51.798;19.474;2023-04-25T06:41:32;1.70;;;1.62;;
50733;SDS011;36701;51.798;19.474;2023-04-25T06:43:59;1.67;;;1.48;;
50733;SDS011;36701;51.798;19.474;2023-04-25T06:46:26;1.85;;;1.75;;
50733;SDS011;36701;51.798;19.474;2023-04-25T06:48:54;5.03;;;2.97;;
50733;SDS011;36701;51.798;19.474;2023-04-25T06:51:20;1.90;;;1.62;;
50733;SDS011;36701;51.798;19.474;2023-04-25T06:53:47;6.10;;;1.70;;
50733;SDS011;36701;51.798;19.474;2023-04-25T06:56:14;2.53;;;2.33;;
50733;SDS011;36701;51.798;19.474;2023-04-25T06:58:41;2.00;;;1.90;;
50733;SDS011;36701;51.798;19.474;2023-04-25T07:01:08;2.08;;;1.95;;
50733;SDS011;36701;51.798;19.474;2023-04-25T07:03:34;3.10;;;1.87;;
50733;SDS011;36701;51.798;19.474;2023-04-25T07:06:01;2.47;;;2.08;;
50733;SDS011;36701;51.798;19.474;2023-04-25T07:08:29;2.20;;;2.10;;
50733;SDS011;36701;51.798;19.474;2023-04-25T07:10:56;3.92;;;2.80;;
50733;SDS011;36701;51.798;19.474;2023-04-25T07:13:23;2.12;;;1.77;;
50733;SDS011;36701;51.798;19.474;2023-04-25T07:15:48;3.87;;;2.10;;
50733;SDS011;36701;51.798;19.474;2023-04-25T07:18:15;3.72;;;2.20;;
50733;SDS011;36701;51.798;19.474;2023-04-25T07:20:41;5.25;;;2.20;;
50733;SDS011;36701;51.798;19.474;2023-04-25T07:23:07;2.97;;;2.35;;
50733;SDS011;36701;51.798;19.474;2023-04-25T07:25:34;3.75;;;2.25;;
50733;SDS011;36701;51.798;19.474;2023-04-25T07:28:01;2.47;;;2.05;;
50733;SDS011;36701;51.798;19.474;2023-04-25T07:30:27;4.93;;;2.00;;
50733;SDS011;36701;51.798;19.474;2023-04-25T07:32:54;7.65;;;2.20;;
50733;SDS011;36701;51.798;19.474;2023-04-25T07:35:20;2.72;;;2.40;;
50733;SDS011;36701;51.798;19.474;2023-04-25T07:37:47;4.05;;;2.55;;
50733;SDS011;36701;51.798;19.474;2023-04-25T07:40:13;2.00;;;1.90;;
50733;SDS011;36701;51.798;19.474;2023-04-25T07:42:43;2.72;;;2.20;;
50733;SDS011;36701;51.798;19.474;2023-04-25T07:45:09;2.55;;;2.35;;
50733;SDS011;36701;51.798;19.474;2023-04-25T07:47:37;1.83;;;1.73;;
50733;SDS011;36701;51.798;19.474;2023-04-25T07:50:04;3.90;;;2.40;;
50733;SDS011;36701;51.798;19.474;2023-04-25T07:52:31;2.25;;;2.05;;
50733;SDS011;36701;51.798;19.474;2023-04-25T07:54:59;4.47;;;2.33;;
50733;SDS011;36701;51.798;19.474;2023-04-25T07:57:27;2.85;;;2.00;;
50733;SDS011;36701;51.798;19.474;2023-04-25T07:59:54;3.95;;;2.25;;
50733;SDS011;36701;51.798;19.474;2023-04-25T08:02:21;5.43;;;2.65;;
50733;SDS011;36701;51.798;19.474;2023-04-25T08:04:48;4.93;;;2.30;;
50733;SDS011;36701;51.798;19.474;2023-04-25T08:07:16;7.78;;;2.08;;
50733;SDS011;36701;51.798;19.474;2023-04-25T08:09:42;2.40;;;1.95;;
50733;SDS011;36701;51.798;19.474;2023-04-25T08:12:10;1.87;;;1.75;;
50733;SDS011;36701;51.798;19.474;2023-04-25T08:14:36;3.37;;;1.87;;
50733;SDS011;36701;51.798;19.474;2023-04-25T08:17:03;2.60;;;2.08;;
50733;SDS011;36701;51.798;19.474;2023-04-25T08:19:31;4.65;;;2.35;;
50733;SDS011;36701;51.798;19.474;2023-04-25T08:21:57;5.03;;;2.60;;
50733;SDS011;36701;51.798;19.474;2023-04-25T08:24:24;5.10;;;2.60;;
50733;SDS011;36701;51.798;19.474;2023-04-25T08:26:51;4.12;;;2.42;;
50733;SDS011;36701;51.798;19.474;2023-04-25T08:29:18;2.78;;;2.47;;
50733;SDS011;36701;51.798;19.474;2023-04-25T08:31:44;4.82;;;2.15;;
50733;SDS011;36701;51.798;19.474;2023-04-25T08:34:17;4.28;;;2.95;;
50733;SDS011;36701;51.798;19.474;2023-04-25T08:36:43;2.45;;;1.98;;
50733;SDS011;36701;51.798;19.474;2023-04-25T08:39:13;7.10;;;2.10;;
50733;SDS011;36701;51.798;19.474;2023-04-25T08:41:41;2.28;;;1.77;;
50733;SDS011;36701;51.798;19.474;2023-04-25T08:44:08;1.75;;;1.65;;
50733;SDS011;36701;51.798;19.474;2023-04-25T08:46:37;2.10;;;1.87;;
50733;SDS011;36701;51.798;19.474;2023-04-25T08:49:05;2.37;;;1.95;;
50733;SDS011;36701;51.798;19.474;2023-04-25T08:51:31;1.62;;;1.50;;
50733;SDS011;36701;51.798;19.474;2023-04-25T08:54:04;2.25;;;2.05;;
50733;SDS011;36701;51.798;19.474;2023-04-25T08:56:34;6.20;;;2.75;;
50733;SDS011;36701;51.798;19.474;2023-04-25T08:59:02;1.40;;;1.40;;
50733;SDS011;36701;51.798;19.474;2023-04-25T09:01:28;1.40;;;1.30;;
50733;SDS011;36701;51.798;19.474;2023-04-25T09:03:56;1.67;;;1.42;;
50733;SDS011;36701;51.798;19.474;2023-04-25T09:06:23;1.20;;;1.20;;
50733;SDS011;36701;51.798;19.474;2023-04-25T09:08:50;2.22;;;1.73;;
50733;SDS011;36701;51.798;19.474;2023-04-25T09:11:16;5.07;;;2.37;;
50733;SDS011;36701;51.798;19.474;2023-04-25T09:13:43;2.70;;;1.40;;
50733;SDS011;36701;51.798;19.474;2023-04-25T09:16:11;4.60;;;1.45;;
50733;SDS011;36701;51.798;19.474;2023-04-25T09:18:38;3.03;;;1.48;;
50733;SDS011;36701;51.798;19.474;2023-04-25T09:21:08;3.45;;;1.77;;
50733;SDS011;36701;51.798;19.474;2023-04-25T09:23:39;1.70;;;1.60;;
50733;SDS011;36701;51.798;19.474;2023-04-25T09:26:06;1.80;;;1.70;;
50733;SDS011;36701;51.798;19.474;2023-04-25T09:28:33;2.25;;;2.00;;
50733;SDS011;36701;51.798;19.474;2023-04-25T09:31:01;2.37;;;1.67;;
50733;SDS011;36701;51.798;19.474;2023-04-25T09:33:29;2.12;;;1.98;;
50733;SDS011;36701;51.798;19.474;2023-04-25T09:36:05;11.02;;;1.73;;
50733;SDS011;36701;51.798;19.474;2023-04-25T09:38:42;4.95;;;1.87;;
50733;SDS011;36701;51.798;19.474;2023-04-25T09:41:09;3.12;;;1.92;;
50733;SDS011;36701;51.798;19.474;2023-04-25T09:43:37;2.78;;;1.60;;
50733;SDS011;36701;51.798;19.474;2023-04-25T09:46:07;6.70;;;1.80;;
50733;SDS011;36701;51.798;19.474;2023-04-25T09:48:36;6.53;;;2.10;;
50733;SDS011;36701;51.798;19.474;2023-04-25T09:53:29;2.55;;;2.05;;
50733;SDS011;36701;51.798;19.474;2023-04-25T09:55:59;4.30;;;2.33;;
50733;SDS011;36701;51.798;19.474;2023-04-25T09:58:27;3.20;;;2.60;;
50733;SDS011;36701;51.798;19.474;2023-04-25T10:00:55;4.12;;;2.35;;
50733;SDS011;36701;51.798;19.474;2023-04-25T10:03:27;2.53;;;2.33;;
50733;SDS011;36701;51.798;19.474;2023-04-25T10:05:56;4.22;;;3.08;;
50733;SDS011;36701;51.798;19.474;2023-04-25T10:08:26;5.90;;;3.53;;
50733;SDS011;36701;51.798;19.474;2023-04-25T10:10:55;5.47;;;2.10;;
50733;SDS011;36701;51.798;19.474;2023-04-25T10:13:31;3.60;;;2.45;;
50733;SDS011;36701;51.798;19.474;2023-04-25T10:15:58;5.30;;;2.35;;
50733;SDS011;36701;51.798;19.474;2023-04-25T10:18:25;3.10;;;2.30;;
50733;SDS011;36701;51.798;19.474;2023-04-25T10:20:52;3.58;;;2.37;;
50733;SDS011;36701;51.798;19.474;2023-04-25T10:23:19;2.65;;;1.87;;
50733;SDS011;36701;51.798;19.474;2023-04-25T10:25:45;1.95;;;1.90;;
50733;SDS011;36701;51.798;19.474;2023-04-25T10:28:12;5.37;;;2.30;;
50733;SDS011;36701;51.798;19.474;2023-04-25T10:30:56;2.97;;;2.20;;
50733;SDS011;36701;51.798;19.474;2023-04-25T10:33:29;2.53;;;2.30;;
50733;SDS011;36701;51.798;19.474;2023-04-25T10:35:57;3.83;;;2.30;;
50733;SDS011;36701;51.798;19.474;2023-04-25T10:38:24;2.55;;;2.25;;
50733;SDS011;36701;51.798;19.474;2023-04-25T10:41:07;4.72;;;2.00;;
50733;SDS011;36701;51.798;19.474;2023-04-25T10:43:44;2.20;;;2.00;;
50733;SDS011;36701;51.798;19.474;2023-04-25T10:46:26;8.10;;;2.17;;
50733;SDS011;36701;51.798;19.474;2023-04-25T10:48:54;3.50;;;2.10;;
50733;SDS011;36701;51.798;19.474;2023-04-25T10:51:24;6.03;;;2.78;;
50733;SDS011;36701;51.798;19.474;2023-04-25T10:56:20;4.32;;;2.28;;
50733;SDS011;36701;51.798;19.474;2023-04-25T10:58:47;2.08;;;1.98;;
50733;SDS011;36701;51.798;19.474;2023-04-25T11:01:14;4.95;;;1.90;;
50733;SDS011;36701;51.798;19.474;2023-04-25T11:03:41;2.75;;;2.40;;
50733;SDS011;36701;51.798;19.474;2023-04-25T11:08:54;7.65;;;2.67;;
50733;SDS011;36701;51.798;19.474;2023-04-25T11:11:20;2.37;;;2.15;;
50733;SDS011;36701;51.798;19.474;2023-04-25T11:13:49;3.08;;;2.45;;
50733;SDS011;36701;51.798;19.474;2023-04-25T11:16:16;2.80;;;2.45;;
50733;SDS011;36701;51.798;19.474;2023-04-25T11:18:43;2.90;;;2.50;;
50733;SDS011;36701;51.798;19.474;2023-04-25T11:21:09;5.80;;;2.72;;
50733;SDS011;36701;51.798;19.474;2023-04-25T11:23:37;3.72;;;2.70;;
50733;SDS011;36701;51.798;19.474;2023-04-25T11:26:03;2.78;;;2.37;;
50733;SDS011;36701;51.798;19.474;2023-04-25T11:28:30;9.85;;;2.72;;
50733;SDS011;36701;51.798;19.474;2023-04-25T11:30:56;6.50;;;2.42;;
50733;SDS011;36701;51.798;19.474;2023-04-25T11:33:23;4.32;;;2.67;;
50733;SDS011;36701;51.798;19.474;2023-04-25T11:35:51;2.70;;;2.10;;
50733;SDS011;36701;51.798;19.474;2023-04-25T11:38:19;2.40;;;2.22;;
50733;SDS011;36701;51.798;19.474;2023-04-25T11:40:49;2.60;;;2.33;;
50733;SDS011;36701;51.798;19.474;2023-04-25T11:43:15;4.50;;;2.00;;
50733;SDS011;36701;51.798;19.474;2023-04-25T11:45:42;3.05;;;2.10;;
50733;SDS011;36701;51.798;19.474;2023-04-25T11:48:12;3.15;;;2.42;;
50733;SDS011;36701;51.798;19.474;2023-04-25T11:50:38;3.08;;;2.45;;
50733;SDS011;36701;51.798;19.474;2023-04-25T11:53:05;3.60;;;2.45;;
50733;SDS011;36701;51.798;19.474;2023-04-25T11:55:31;2.47;;;2.37;;
50733;SDS011;36701;51.798;19.474;2023-04-25T11:57:59;2.10;;;2.00;;
50733;SDS011;36701;51.798;19.474;2023-04-25T12:00:26;3.37;;;2.40;;
50733;SDS011;36701;51.798;19.474;2023-04-25T12:02:53;3.45;;;2.25;;
50733;SDS011;36701;51.798;19.474;2023-04-25T12:05:20;10.07;;;2.22;;
50733;SDS011;36701;51.798;19.474;2023-04-25T12:07:46;4.43;;;3.03;;
50733;SDS011;36701;51.798;19.474;2023-04-25T12:10:13;4.68;;;2.87;;
50733;SDS011;36701;51.798;19.474;2023-04-25T12:12:44;3.97;;;2.47;;
50733;SDS011;36701;51.798;19.474;2023-04-25T12:15:17;3.12;;;2.47;;
50733;SDS011;36701;51.798;19.474;2023-04-25T12:17:49;6.10;;;2.33;;
50733;SDS011;36701;51.798;19.474;2023-04-25T12:20:16;7.40;;;2.35;;
50733;SDS011;36701;51.798;19.474;2023-04-25T12:22:44;3.78;;;2.78;;
50733;SDS011;36701;51.798;19.474;2023-04-25T12:25:11;6.22;;;2.60;;
50733;SDS011;36701;51.798;19.474;2023-04-25T12:27:39;1.85;;;1.65;;
50733;SDS011;36701;51.798;19.474;2023-04-25T12:30:09;2.42;;;2.33;;
50733;SDS011;36701;51.798;19.474;2023-04-25T12:32:36;2.33;;;2.17;;
50733;SDS011;36701;51.798;19.474;2023-04-25T12:35:04;5.15;;;2.53;;
50733;SDS011;36701;51.798;19.474;2023-04-25T12:37:31;8.20;;;2.28;;
50733;SDS011;36701;51.798;19.474;2023-04-25T12:39:57;7.65;;;2.40;;
50733;SDS011;36701;51.798;19.474;2023-04-25T12:42:24;5.28;;;2.83;;
50733;SDS011;36701;51.798;19.474;2023-04-25T12:44:50;2.65;;;1.70;;
50733;SDS011;36701;51.798;19.474;2023-04-25T12:47:16;8.73;;;1.80;;
50733;SDS011;36701;51.798;19.474;2023-04-25T12:49:49;6.60;;;2.12;;
50733;SDS011;36701;51.798;19.474;2023-04-25T12:52:15;1.90;;;1.60;;
50733;SDS011;36701;51.798;19.474;2023-04-25T12:54:42;1.65;;;1.55;;
50733;SDS011;36701;51.798;19.474;2023-04-25T12:57:08;1.70;;;1.60;;
50733;SDS011;36701;51.798;19.474;2023-04-25T12:59:36;4.35;;;1.85;;
50733;SDS011;36701;51.798;19.474;2023-04-25T13:02:03;6.72;;;2.40;;
50733;SDS011;36701;51.798;19.474;2023-04-25T13:04:29;2.10;;;1.73;;
50733;SDS011;36701;51.798;19.474;2023-04-25T13:06:57;4.70;;;1.85;;
50733;SDS011;36701;51.798;19.474;2023-04-25T13:09:23;2.28;;;2.10;;
50733;SDS011;36701;51.798;19.474;2023-04-25T13:11:52;3.08;;;1.75;;
50733;SDS011;36701;51.798;19.474;2023-04-25T13:14:24;2.85;;;2.28;;
50733;SDS011;36701;51.798;19.474;2023-04-25T13:16:51;2.42;;;2.22;;
50733;SDS011;36701;51.798;19.474;2023-04-25T13:19:17;3.22;;;2.30;;
50733;SDS011;36701;51.798;19.474;2023-04-25T13:21:43;2.85;;;2.40;;
50733;SDS011;36701;51.798;19.474;2023-04-25T13:24:10;2.22;;;2.12;;
50733;SDS011;36701;51.798;19.474;2023-04-25T13:26:36;2.00;;;1.90;;
50733;SDS011;36701;51.798;19.474;2023-04-25T13:29:02;2.20;;;2.00;;
50733;SDS011;36701;51.798;19.474;2023-04-25T13:31:30;5.10;;;2.10;;
50733;SDS011;36701;51.798;19.474;2023-04-25T13:33:57;3.03;;;2.35;;
50733;SDS011;36701;51.798;19.474;2023-04-25T13:36:24;4.30;;;2.58;;
50733;SDS011;36701;51.798;19.474;2023-04-25T13:38:50;2.03;;;1.83;;
50733;SDS011;36701;51.798;19.474;2023-04-25T13:41:17;6.70;;;2.20;;
50733;SDS011;36701;51.798;19.474;2023-04-25T13:43:45;1.90;;;1.80;;
50733;SDS011;36701;51.798;19.474;2023-04-25T13:46:13;7.10;;;1.67;;
50733;SDS011;36701;51.798;19.474;2023-04-25T13:48:41;2.33;;;2.10;;
50733;SDS011;36701;51.798;19.474;2023-04-25T13:51:13;3.53;;;1.90;;
50733;SDS011;36701;51.798;19.474;2023-04-25T13:53:39;2.22;;;1.90;;
50733;SDS011;36701;51.798;19.474;2023-04-25T13:56:06;1.73;;;1.50;;
50733;SDS011;36701;51.798;19.474;2023-04-25T13:58:32;4.25;;;1.65;;
50733;SDS011;36701;51.798;19.474;2023-04-25T14:00:59;4.12;;;2.15;;
50733;SDS011;36701;51.798;19.474;2023-04-25T14:03:25;1.60;;;1.55;;
50733;SDS011;36701;51.798;19.474;2023-04-25T14:05:52;4.25;;;2.30;;
50733;SDS011;36701;51.798;19.474;2023-04-25T14:08:18;3.97;;;2.25;;
50733;SDS011;36701;51.798;19.474;2023-04-25T14:10:45;9.35;;;4.95;;
50733;SDS011;36701;51.798;19.474;2023-04-25T14:13:11;9.68;;;3.55;;
50733;SDS011;36701;51.798;19.474;2023-04-25T14:15:37;7.32;;;3.00;;
50733;SDS011;36701;51.798;19.474;2023-04-25T14:18:04;2.72;;;2.10;;
50733;SDS011;36701;51.798;19.474;2023-04-25T14:20:30;4.25;;;2.28;;
50733;SDS011;36701;51.798;19.474;2023-04-25T14:22:56;3.83;;;3.08;;
50733;SDS011;36701;51.798;19.474;2023-04-25T14:25:24;2.95;;;2.20;;
50733;SDS011;36701;51.798;19.474;2023-04-25T14:27:51;9.95;;;2.53;;
50733;SDS011;36701;51.798;19.474;2023-04-25T14:30:17;3.70;;;2.10;;
50733;SDS011;36701;51.798;19.474;2023-04-25T14:32:44;2.75;;;2.03;;
50733;SDS011;36701;51.798;19.474;2023-04-25T14:35:11;2.85;;;1.83;;
50733;SDS011;36701;51.798;19.474;2023-04-25T14:37:37;3.80;;;2.15;;
50733;SDS011;36701;51.798;19.474;2023-04-25T14:40:04;4.57;;;2.15;;
50733;SDS011;36701;51.798;19.474;2023-04-25T14:42:30;4.95;;;2.60;;
50733;SDS011;36701;51.798;19.474;2023-04-25T14:44:57;2.80;;;1.50;;
50733;SDS011;36701;51.798;19.474;2023-04-25T14:47:24;6.43;;;2.58;;
50733;SDS011;36701;51.798;19.474;2023-04-25T14:49:50;3.03;;;2.22;;
50733;SDS011;36701;51.798;19.474;2023-04-25T14:52:20;2.83;;;1.70;;
50733;SDS011;36701;51.798;19.474;2023-04-25T14:54:47;2.30;;;1.40;;
50733;SDS011;36701;51.798;19.474;2023-04-25T14:57:19;3.53;;;2.08;;
50733;SDS011;36701;51.798;19.474;2023-04-25T14:59:45;1.73;;;1.62;;
50733;SDS011;36701;51.798;19.474;2023-04-25T15:02:12;2.05;;;1.92;;
50733;SDS011;36701;51.798;19.474;2023-04-25T15:04:38;3.53;;;1.52;;
50733;SDS011;36701;51.798;19.474;2023-04-25T15:07:04;1.85;;;1.48;;
50733;SDS011;36701;51.798;19.474;2023-04-25T15:09:31;5.43;;;2.45;;
50733;SDS011;36701;51.798;19.474;2023-04-25T15:11:57;3.33;;;1.48;;
50733;SDS011;36701;51.798;19.474;2023-04-25T15:14:24;3.33;;;2.10;;
50733;SDS011;36701;51.798;19.474;2023-04-25T15:16:50;1.92;;;1.70;;
50733;SDS011;36701;51.798;19.474;2023-04-25T15:19:16;2.55;;;2.15;;
50733;SDS011;36701;51.798;19.474;2023-04-25T15:21:42;6.05;;;2.45;;
50733;SDS011;36701;51.798;19.474;2023-04-25T15:24:09;5.37;;;3.08;;
50733;SDS011;36701;51.798;19.474;2023-04-25T15:26:36;6.72;;;2.35;;
50733;SDS011;36701;51.798;19.474;2023-04-25T15:29:02;2.95;;;2.33;;
50733;SDS011;36701;51.798;19.474;2023-04-25T15:31:29;3.72;;;2.58;;
50733;SDS011;36701;51.798;19.474;2023-04-25T15:33:56;3.40;;;2.67;;
50733;SDS011;36701;51.798;19.474;2023-04-25T15:36:22;6.32;;;3.53;;
50733;SDS011;36701;51.798;19.474;2023-04-25T15:38:49;10.55;;;3.22;;
50733;SDS011;36701;51.798;19.474;2023-04-25T15:41:15;3.72;;;2.30;;
50733;SDS011;36701;51.798;19.474;2023-04-25T15:43:43;4.62;;;2.97;;
50733;SDS011;36701;51.798;19.474;2023-04-25T15:46:09;9.35;;;5.72;;
50733;SDS011;36701;51.798;19.474;2023-04-25T15:48:35;4.57;;;2.12;;
50733;SDS011;36701;51.798;19.474;2023-04-25T15:51:01;2.45;;;2.17;;
50733;SDS011;36701;51.798;19.474;2023-04-25T15:53:33;3.53;;;1.77;;
50733;SDS011;36701;51.798;19.474;2023-04-25T15:56:00;6.82;;;2.15;;
50733;SDS011;36701;51.798;19.474;2023-04-25T15:58:26;3.05;;;2.20;;
50733;SDS011;36701;51.798;19.474;2023-04-25T16:00:53;3.00;;;1.85;;
50733;SDS011;36701;51.798;19.474;2023-04-25T16:03:20;6.22;;;1.70;;
50733;SDS011;36701;51.798;19.474;2023-04-25T16:05:47;3.10;;;2.10;;
50733;SDS011;36701;51.798;19.474;2023-04-25T16:08:14;3.10;;;1.95;;
50733;SDS011;36701;51.798;19.474;2023-04-25T16:10:41;19.17;;;2.20;;
50733;SDS011;36701;51.798;19.474;2023-04-25T16:13:07;8.05;;;2.08;;
50733;SDS011;36701;51.798;19.474;2023-04-25T16:15:34;2.30;;;1.80;;
50733;SDS011;36701;51.798;19.474;2023-04-25T16:18:01;3.15;;;2.17;;
50733;SDS011;36701;51.798;19.474;2023-04-25T16:20:29;2.03;;;1.83;;
50733;SDS011;36701;51.798;19.474;2023-04-25T16:22:55;3.55;;;2.10;;
50733;SDS011;36701;51.798;19.474;2023-04-25T16:25:21;5.60;;;2.50;;
50733;SDS011;36701;51.798;19.474;2023-04-25T16:27:48;3.97;;;2.30;;
50733;SDS011;36701;51.798;19.474;2023-04-25T16:30:14;7.97;;;3.05;;
50733;SDS011;36701;51.798;19.474;2023-04-25T16:32:41;5.12;;;2.40;;
50733;SDS011;36701;51.798;19.474;2023-04-25T16:35:08;7.65;;;2.85;;
50733;SDS011;36701;51.798;19.474;2023-04-25T16:37:34;5.62;;;2.67;;
50733;SDS011;36701;51.798;19.474;2023-04-25T16:40:01;5.32;;;2.72;;
50733;SDS011;36701;51.798;19.474;2023-04-25T16:42:27;4.30;;;2.80;;
50733;SDS011;36701;51.798;19.474;2023-04-25T16:44:53;11.93;;;2.95;;